Time;durP1;ratioP1;P1;durP2;ratioP2;P2;SDS_P1;SDS_P2;PMS_P1;PMS_P2;Temp;Humidity;BMP_temperature;BMP_pressure;BME280_temperature;BME280_humidity;BME280_pressure;Samples;Min_cycle;Max_cycle;Signal;HPM_P1;HPM_P2
2022/11/04 00:01:44;;;;;;;27.55;15.48;;;11.60;99.90;;;;;;5045785;28;20153;-79
2022/11/04 00:04:11;;;;;;;21.55;15.45;;;11.50;99.90;;;;;;5048747;28;20084;-80
2022/11/04 00:06:37;;;;;;;22.00;15.70;;;11.70;99.90;;;;;;5029401;28;20047;-79
2022/11/04 00:09:04;;;;;;;20.90;14.73;;;11.40;99.90;;;;;;5025820;28;20036;-80
2022/11/04 00:14:15;;;;;;;19.10;14.27;;;11.40;99.90;;;;;;5040879;28;20400;-81
2022/11/04 00:19:26;;;;;;;18.90;14.35;;;11.40;99.90;;;;;;5056741;28;20098;-79
2022/11/04 00:30:09;;;;;;;19.08;13.70;;;11.50;99.90;;;;;;5040698;28;20132;-80
2022/11/04 00:35:20;;;;;;;12.55;9.82;;;11.30;99.90;;;;;;5044225;28;20076;-78
2022/11/04 00:37:46;;;;;;;10.07;7.30;;;11.50;99.90;;;;;;5041758;28;20028;-78
2022/11/04 00:40:15;;;;;;;7.40;6.15;;;11.60;99.90;;;;;;5029753;28;20411;-79
2022/11/04 00:42:43;;;;;;;7.32;5.43;;;11.30;99.90;;;;;;5039807;28;20085;-77
2022/11/04 00:45:10;;;;;;;7.45;6.05;;;11.20;99.90;;;;;;5040278;28;20041;-77
2022/11/04 00:47:35;;;;;;;5.68;4.65;;;11.50;99.90;;;;;;5031361;28;20198;-79
2022/11/04 00:50:01;;;;;;;3.47;2.80;;;11.20;99.90;;;;;;5041606;28;20135;-79
2022/11/04 00:52:27;;;;;;;3.38;2.03;;;11.30;99.90;;;;;;5029410;28;20158;-80
2022/11/04 00:54:52;;;;;;;1.50;1.40;;;11.20;99.90;;;;;;5058984;28;20036;-78
2022/11/04 00:57:18;;;;;;;2.65;1.33;;;10.90;99.90;;;;;;5029994;28;20045;-79
2022/11/04 00:59:44;;;;;;;1.83;1.20;;;10.80;99.90;;;;;;5039822;28;20333;-78
2022/11/04 01:02:11;;;;;;;4.20;0.98;;;11.00;99.90;;;;;;5026426;28;20055;-79
2022/11/04 01:04:36;;;;;;;3.03;1.05;;;10.80;99.90;;;;;;5042382;28;20144;-77
2022/11/04 01:07:03;;;;;;;4.15;0.80;;;10.70;99.90;;;;;;5039363;28;20079;-77
2022/11/04 01:09:28;;;;;;;6.32;1.00;;;10.70;99.90;;;;;;5029353;28;20535;-78
2022/11/04 01:11:54;;;;;;;4.07;0.88;;;10.70;99.90;;;;;;5041179;28;20136;-79
2022/11/04 01:14:20;;;;;;;3.63;0.80;;;10.70;99.90;;;;;;5031055;28;20044;-81
2022/11/04 01:16:49;;;;;;;2.75;0.75;;;10.70;99.90;;;;;;5031645;28;20123;-79
2022/11/04 01:19:15;;;;;;;2.13;0.80;;;10.90;99.90;;;;;;5028625;28;20136;-76
2022/11/04 01:21:41;;;;;;;4.05;0.90;;;10.60;99.90;;;;;;5026604;28;20037;-81
2022/11/04 01:24:07;;;;;;;1.90;0.60;;;10.70;99.90;;;;;;5040729;28;20033;-79
2022/11/04 01:26:32;;;;;;;1.55;0.60;;;10.70;99.90;;;;;;5026909;28;20078;-80
2022/11/04 01:28:59;;;;;;;1.98;0.70;;;10.70;99.90;;;;;;5042105;28;20143;-77
2022/11/04 01:31:30;;;;;;;5.15;0.60;;;10.80;99.90;;;;;;5029374;28;20037;-78
2022/11/04 01:33:57;;;;;;;2.00;0.60;;;10.50;99.90;;;;;;5024943;28;20068;-78
2022/11/04 01:36:23;;;;;;;1.30;0.60;;;10.70;99.90;;;;;;5028649;28;20032;-81
2022/11/04 01:38:49;;;;;;;3.03;0.70;;;10.70;99.90;;;;;;5044247;28;20483;-80
2022/11/04 01:41:27;;;;;;;3.60;0.75;;;10.50;99.90;;;;;;5040279;28;20041;-80
2022/11/04 01:44:03;;;;;;;2.55;0.45;;;10.70;99.90;;;;;;5057182;28;20076;-79
2022/11/04 01:46:37;;;;;;;2.65;0.70;;;10.80;99.90;;;;;;5046019;28;20040;-81
2022/11/04 01:49:17;;;;;;;3.10;0.60;;;10.70;99.90;;;;;;5039691;28;20389;-79
2022/11/04 01:51:45;;;;;;;3.45;0.60;;;10.80;99.90;;;;;;5040193;28;20488;-77
2022/11/04 01:54:11;;;;;;;3.70;0.90;;;10.70;99.90;;;;;;5026485;28;20373;-79
2022/11/04 01:56:40;;;;;;;3.10;0.93;;;10.50;99.90;;;;;;5048383;28;20123;-79
2022/11/04 01:59:13;;;;;;;6.32;0.60;;;10.60;99.90;;;;;;5039232;28;20071;-77
2022/11/04 02:01:39;;;;;;;7.43;0.95;;;10.60;99.90;;;;;;5031766;28;20112;-80
2022/11/04 02:07:02;;;;;;;2.15;0.63;;;10.50;99.90;;;;;;5053905;28;20041;-78
2022/11/04 02:09:30;;;;;;;3.17;0.60;;;10.60;99.90;;;;;;5039511;28;20032;-77
2022/11/04 02:14:40;;;;;;;4.20;0.70;;;10.50;99.90;;;;;;5043744;28;20051;-79
2022/11/04 02:17:18;;;;;;;7.05;0.70;;;10.70;99.90;;;;;;5037716;28;20529;-80
2022/11/04 02:20:27;;;;;;;8.07;0.90;;;10.50;99.90;;;;;;5027652;28;20143;-79
2022/11/04 02:23:14;;;;;;;4.80;0.85;;;10.70;99.90;;;;;;5022919;28;20079;-76
2022/11/04 02:26:04;;;;;;;5.13;0.82;;;10.50;99.90;;;;;;5031130;28;20039;-80
2022/11/04 02:29:09;;;;;;;2.70;0.60;;;10.40;99.90;;;;;;5032239;28;20044;-81
2022/11/04 02:31:52;;;;;;;8.48;0.70;;;10.40;99.90;;;;;;5029593;28;20055;-78
2022/11/04 02:34:48;;;;;;;7.30;0.80;;;10.60;99.90;;;;;;5039428;28;20054;-79
2022/11/04 02:37:46;;;;;;;5.28;0.70;;;10.50;99.90;;;;;;5014118;28;20057;-78
2022/11/04 02:40:24;;;;;;;4.05;0.60;;;10.30;99.90;;;;;;4992362;28;20050;-80
2022/11/04 02:43:33;;;;;;;9.38;0.73;;;10.40;99.90;;;;;;4988734;28;20057;-82
2022/11/04 02:46:14;;;;;;;13.38;1.17;;;10.30;99.90;;;;;;4948566;28;20054;-80
2022/11/04 02:48:53;;;;;;;9.55;0.73;;;10.50;99.90;;;;;;4962192;28;20046;-81
2022/11/04 02:51:34;;;;;;;9.88;0.73;;;10.40;99.90;;;;;;4948724;28;20059;-82
2022/11/04 02:54:15;;;;;;;9.00;0.90;;;10.30;99.90;;;;;;4944808;28;20047;-79
2022/11/04 02:56:47;;;;;;;4.10;0.80;;;10.40;99.90;;;;;;4944466;28;20073;-79
2022/11/04 02:59:36;;;;;;;4.25;0.50;;;10.30;99.90;;;;;;4949943;28;20050;-78
2022/11/04 03:02:06;;;;;;;4.47;0.88;;;10.30;99.90;;;;;;4949249;28;20577;-77
2022/11/04 03:04:38;;;;;;;6.45;0.70;;;10.40;99.90;;;;;;4948370;28;20049;-79
2022/11/04 03:07:09;;;;;;;8.73;1.38;;;10.40;99.90;;;;;;4933416;28;20418;-78
2022/11/04 03:09:41;;;;;;;7.45;0.57;;;10.30;99.90;;;;;;4950003;28;20058;-80
2022/11/04 03:12:13;;;;;;;3.90;0.82;;;10.20;99.90;;;;;;4934800;28;20149;-80
2022/11/04 03:14:46;;;;;;;8.10;0.63;;;10.30;99.90;;;;;;4974106;28;20403;-80
2022/11/04 03:17:35;;;;;;;8.82;1.10;;;10.10;99.90;;;;;;4986811;28;20056;-81
2022/11/04 03:20:06;;;;;;;6.57;0.75;;;10.40;99.90;;;;;;4997684;28;20042;-77
2022/11/04 03:22:36;;;;;;;11.40;1.05;;;10.20;99.90;;;;;;5000560;28;20163;-80
2022/11/04 03:25:06;;;;;;;9.35;0.98;;;10.30;99.90;;;;;;5037056;28;20041;-80
2022/11/04 03:27:55;;;;;;;11.10;1.15;;;10.30;99.90;;;;;;5039408;28;20250;-80
2022/11/04 03:30:22;;;;;;;9.52;0.98;;;10.50;99.90;;;;;;5027528;28;20052;-80
2022/11/04 03:32:54;;;;;;;6.13;0.90;;;10.30;99.90;;;;;;5046909;28;20534;-79
2022/11/04 03:35:20;;;;;;;9.82;1.20;;;10.20;99.90;;;;;;5041841;28;20036;-82
2022/11/04 03:37:47;;;;;;;6.72;1.00;;;10.50;99.90;;;;;;5047774;28;20033;-77
2022/11/04 03:40:14;;;;;;;7.85;0.93;;;10.40;99.90;;;;;;5037759;28;20071;-78
2022/11/04 03:42:58;;;;;;;6.38;1.00;;;10.50;99.90;;;;;;5039996;28;20036;-80
2022/11/04 03:45:24;;;;;;;12.02;1.00;;;10.50;99.90;;;;;;5040837;28;20346;-81
2022/11/04 03:47:50;;;;;;;8.52;0.82;;;10.50;99.90;;;;;;5035320;28;20049;-76
2022/11/04 03:50:29;;;;;;;9.57;1.25;;;10.30;99.90;;;;;;5056885;28;20059;-81
2022/11/04 03:52:56;;;;;;;8.30;1.40;;;10.40;99.90;;;;;;5047987;28;20151;-79
2022/11/04 03:55:37;;;;;;;8.63;1.25;;;10.20;99.90;;;;;;5040218;28;20128;-82
2022/11/04 03:58:22;;;;;;;8.63;0.98;;;10.40;99.90;;;;;;5045518;28;20060;-81
2022/11/04 04:01:04;;;;;;;7.40;1.17;;;10.30;99.90;;;;;;5042560;28;20037;-82
2022/11/04 04:03:37;;;;;;;13.05;1.10;;;10.50;99.90;;;;;;5025867;28;20044;-79
2022/11/04 04:06:16;;;;;;;7.70;1.13;;;10.40;99.90;;;;;;5040370;28;20066;-83
2022/11/04 04:08:55;;;;;;;10.88;1.33;;;10.40;99.90;;;;;;5035912;28;22046;-81
2022/11/04 04:11:29;;;;;;;6.88;1.20;;;10.30;99.90;;;;;;5040369;28;20102;-80
2022/11/04 04:14:04;;;;;;;6.85;1.13;;;10.40;99.90;;;;;;5029893;28;20045;-80
2022/11/04 04:16:36;;;;;;;8.10;1.20;;;10.40;99.90;;;;;;5040689;28;20052;-80
2022/11/04 04:19:18;;;;;;;13.07;1.42;;;10.50;99.90;;;;;;5042445;28;20055;-82
2022/11/04 04:21:54;;;;;;;9.02;1.30;;;10.60;99.90;;;;;;5042426;28;20537;-80
2022/11/04 04:27:29;;;;;;;5.60;1.10;;;10.30;99.90;;;;;;5038544;28;20052;-79
2022/11/04 04:29:59;;;;;;;3.33;0.90;;;10.60;99.90;;;;;;5043069;28;20131;-78
2022/11/04 04:32:27;;;;;;;7.75;1.08;;;10.50;99.90;;;;;;5050755;28;20403;-80
2022/11/04 04:35:40;;;;;;;4.07;0.93;;;10.20;99.90;;;;;;5031214;28;20045;-79
2022/11/04 04:37:43;;;;;;;3.25;0.82;;;10.10;99.90;;;;;;5041302;28;20098;-80
2022/11/04 04:45:52;;;;;;;3.40;0.70;;;10.40;99.90;;;;;;5062756;28;20094;-80
2022/11/04 04:48:18;;;;;;;4.72;0.60;;;10.40;99.90;;;;;;5022965;28;20176;-79
2022/11/04 04:50:48;;;;;;;5.13;1.10;;;10.20;99.90;;;;;;5045627;28;20205;-78
2022/11/04 04:53:14;;;;;;;7.13;1.10;;;10.30;99.90;;;;;;5037701;28;20386;-82
2022/11/04 04:55:39;;;;;;;6.72;0.80;;;10.10;99.90;;;;;;5034310;28;20056;-79
2022/11/04 04:58:05;;;;;;;4.60;0.90;;;10.00;99.90;;;;;;5041440;28;20080;-78
2022/11/04 05:00:32;;;;;;;5.00;0.90;;;10.30;99.90;;;;;;5031299;28;20072;-82
2022/11/04 05:02:58;;;;;;;5.43;0.60;;;10.10;99.90;;;;;;5029628;28;20059;-82
2022/11/04 05:05:24;;;;;;;4.78;0.60;;;10.10;99.90;;;;;;5030335;28;20726;-79
2022/11/04 05:07:50;;;;;;;4.65;0.55;;;9.90;99.90;;;;;;5046111;28;20118;-82
2022/11/04 05:10:17;;;;;;;4.78;0.60;;;9.80;99.90;;;;;;5027617;28;20086;-80
2022/11/04 05:15:28;;;;;;;8.23;1.00;;;9.80;99.90;;;;;;5043938;28;20124;-82
2022/11/04 05:17:59;;;;;;;5.50;1.30;;;9.80;99.90;;;;;;5029655;28;20074;-83
2022/11/04 05:20:25;;;;;;;4.82;0.73;;;10.00;99.90;;;;;;5042739;28;20038;-81
2022/11/04 05:22:51;;;;;;;8.18;1.10;;;9.90;99.90;;;;;;5043966;28;20040;-81
2022/11/04 05:25:17;;;;;;;8.70;1.30;;;9.70;99.90;;;;;;5042871;28;20438;-81
2022/11/04 05:27:42;;;;;;;1.63;0.60;;;9.80;99.90;;;;;;5038876;28;20037;-80
2022/11/04 05:30:08;;;;;;;4.85;0.73;;;9.80;99.90;;;;;;5024636;28;20185;-81
2022/11/04 05:32:34;;;;;;;6.10;0.80;;;9.70;99.90;;;;;;5039227;28;20048;-77
2022/11/04 05:35:00;;;;;;;5.72;0.60;;;9.80;99.90;;;;;;5026955;28;20103;-81
2022/11/04 05:37:25;;;;;;;6.07;1.02;;;9.90;99.90;;;;;;5040556;28;20071;-78
2022/11/04 05:39:51;;;;;;;6.38;1.25;;;9.80;99.90;;;;;;5031002;28;20075;-77
2022/11/04 05:42:17;;;;;;;5.75;1.00;;;9.60;99.90;;;;;;5046117;28;20407;-82
2022/11/04 05:44:43;;;;;;;6.53;1.15;;;9.80;99.90;;;;;;5029148;28;20059;-78
2022/11/04 05:47:09;;;;;;;4.38;0.80;;;9.60;99.90;;;;;;5043370;28;20165;-81
2022/11/04 05:49:34;;;;;;;8.02;0.98;;;9.50;99.90;;;;;;5043988;28;20332;-81
2022/11/04 05:52:00;;;;;;;3.92;0.70;;;9.50;99.90;;;;;;5042145;28;20052;-79
2022/11/04 05:54:26;;;;;;;3.50;0.80;;;9.60;99.90;;;;;;5042186;28;20037;-79
2022/11/04 05:56:52;;;;;;;5.72;0.95;;;9.40;99.90;;;;;;5027288;28;20048;-80
2022/11/04 05:59:17;;;;;;;6.65;0.90;;;9.30;99.90;;;;;;5046168;28;20032;-82
2022/11/04 06:01:43;;;;;;;3.55;0.60;;;9.40;99.90;;;;;;5047121;28;20092;-84
2022/11/04 06:04:15;;;;;;;6.55;0.90;;;9.40;99.90;;;;;;5045438;28;20029;-83
2022/11/04 06:06:41;;;;;;;4.40;0.93;;;9.30;99.90;;;;;;5047029;28;20040;-80
2022/11/04 06:09:07;;;;;;;4.97;0.95;;;9.50;99.90;;;;;;5044012;28;20111;-80
2022/11/04 06:11:34;;;;;;;5.13;0.90;;;9.50;99.90;;;;;;5045699;28;20093;-81
2022/11/04 06:14:00;;;;;;;4.47;0.73;;;9.50;99.90;;;;;;5033181;28;20155;-83
2022/11/04 06:16:26;;;;;;;7.13;0.73;;;9.20;99.90;;;;;;5032636;28;20048;-79
2022/11/04 06:18:52;;;;;;;2.42;0.70;;;9.20;99.90;;;;;;5044090;28;20116;-80
2022/11/04 06:21:24;;;;;;;6.05;1.00;;;9.20;99.90;;;;;;5027128;28;20541;-79
2022/11/04 06:23:51;;;;;;;5.90;0.85;;;9.40;99.90;;;;;;5044973;28;20404;-79
2022/11/04 06:26:17;;;;;;;7.38;1.13;;;9.20;99.90;;;;;;5044224;28;20053;-79
2022/11/04 06:28:42;;;;;;;5.10;1.00;;;9.30;99.90;;;;;;5042292;28;20040;-81
2022/11/04 06:31:10;;;;;;;4.07;0.75;;;9.30;99.90;;;;;;5048531;28;20048;-78
2022/11/04 06:33:35;;;;;;;9.20;1.10;;;9.10;99.90;;;;;;5024421;28;20037;-78
2022/11/04 06:36:03;;;;;;;8.15;1.00;;;9.20;99.90;;;;;;5047414;28;20052;-79
2022/11/04 06:38:33;;;;;;;4.07;0.95;;;9.20;99.90;;;;;;5029430;28;20082;-79
2022/11/04 06:40:59;;;;;;;5.88;1.20;;;9.00;99.90;;;;;;5028479;28;20054;-80
2022/11/04 06:43:24;;;;;;;8.75;1.17;;;9.00;99.90;;;;;;5034044;28;20060;-79
2022/11/04 06:46:01;;;;;;;6.13;1.67;;;9.00;99.90;;;;;;5024125;28;20043;-78
2022/11/04 06:48:29;;;;;;;5.13;1.30;;;8.90;99.90;;;;;;5034809;28;20110;-80
2022/11/04 06:50:59;;;;;;;9.27;1.45;;;8.80;99.90;;;;;;5032911;28;20069;-77
2022/11/04 06:53:25;;;;;;;4.20;1.30;;;8.80;99.90;;;;;;5049631;28;20060;-77
2022/11/04 06:55:52;;;;;;;11.63;1.30;;;8.80;99.90;;;;;;5044087;28;20074;-79
2022/11/04 06:58:18;;;;;;;6.75;1.20;;;8.80;99.90;;;;;;5039090;28;20396;-81
2022/11/04 07:00:51;;;;;;;9.93;1.30;;;8.90;99.90;;;;;;5041797;28;20195;-79
2022/11/04 07:03:17;;;;;;;7.15;1.30;;;8.80;99.90;;;;;;5025322;28;20437;-83
2022/11/04 07:05:43;;;;;;;11.55;1.50;;;8.80;99.90;;;;;;5021526;28;20238;-78
2022/11/04 07:08:08;;;;;;;6.82;1.60;;;8.80;99.90;;;;;;5032782;28;20052;-79
2022/11/04 07:10:34;;;;;;;11.07;1.52;;;8.90;99.90;;;;;;5007577;28;20155;-82
2022/11/04 07:13:01;;;;;;;8.45;1.30;;;8.70;99.90;;;;;;5039128;28;20118;-80
2022/11/04 07:15:28;;;;;;;8.77;1.35;;;8.80;99.90;;;;;;5042503;28;20028;-78
2022/11/04 07:17:53;;;;;;;7.20;1.83;;;8.90;99.90;;;;;;5028586;28;20171;-82
2022/11/04 07:20:19;;;;;;;7.72;1.70;;;8.90;99.90;;;;;;5038652;28;20796;-81
2022/11/04 07:22:45;;;;;;;9.60;1.40;;;8.80;99.90;;;;;;5035453;28;20122;-80
2022/11/04 07:29:41;;;;;;;8.55;1.30;;;8.80;99.90;;;;;;5035514;28;20039;-82
2022/11/04 07:32:07;;;;;;;8.20;1.30;;;8.80;99.90;;;;;;5038670;28;20369;-82
2022/11/04 07:34:32;;;;;;;5.60;1.40;;;8.80;99.90;;;;;;5029111;28;20045;-80
2022/11/04 07:36:58;;;;;;;5.38;1.10;;;9.00;99.90;;;;;;5029220;28;20041;-81
2022/11/04 07:39:24;;;;;;;8.18;1.30;;;9.00;99.90;;;;;;5043593;28;20037;-80
2022/11/04 07:41:49;;;;;;;8.68;1.45;;;9.10;99.90;;;;;;5022745;28;20046;-82
2022/11/04 07:44:15;;;;;;;11.85;1.38;;;8.90;99.90;;;;;;5022738;28;20034;-80
2022/11/04 07:46:41;;;;;;;10.27;1.90;;;8.90;99.90;;;;;;5036506;28;20041;-77
2022/11/04 07:49:07;;;;;;;8.25;1.85;;;9.10;99.90;;;;;;5021854;28;20048;-79
2022/11/04 07:51:33;;;;;;;6.60;1.30;;;8.90;99.90;;;;;;5035548;28;20033;-80
2022/11/04 07:53:59;;;;;;;5.93;1.83;;;9.20;99.90;;;;;;5037851;28;20096;-78
2022/11/04 07:56:27;;;;;;;11.15;1.98;;;9.10;99.90;;;;;;5043822;28;20500;-81
2022/11/04 07:58:53;;;;;;;10.93;1.90;;;9.00;99.90;;;;;;5032833;28;20486;-80
2022/11/04 08:01:24;;;;;;;7.10;1.70;;;9.00;99.90;;;;;;5034033;28;20046;-79
2022/11/04 08:03:51;;;;;;;5.78;1.35;;;9.00;99.90;;;;;;5040849;28;20140;-79
2022/11/04 08:06:19;;;;;;;5.82;1.70;;;9.30;99.90;;;;;;5035983;28;20044;-78
2022/11/04 08:08:46;;;;;;;3.95;1.67;;;9.40;99.90;;;;;;5035615;28;20036;-80
2022/11/04 08:11:18;;;;;;;6.57;1.73;;;9.20;99.90;;;;;;5025621;28;20179;-79
2022/11/04 08:13:44;;;;;;;7.90;1.77;;;9.20;99.90;;;;;;5041879;28;20057;-81
2022/11/04 08:16:13;;;;;;;12.50;2.08;;;9.30;99.90;;;;;;5027267;28;20207;-80
2022/11/04 08:18:40;;;;;;;6.50;1.55;;;9.30;99.90;;;;;;5036501;28;20176;-80
2022/11/04 08:21:06;;;;;;;8.88;1.85;;;9.50;99.90;;;;;;5022412;28;20057;-79
2022/11/04 08:23:33;;;;;;;6.88;1.70;;;9.60;99.90;;;;;;5016239;28;20052;-79
2022/11/04 08:25:59;;;;;;;6.00;1.58;;;9.70;99.90;;;;;;5025873;28;20041;-79
2022/11/04 08:28:25;;;;;;;6.50;1.40;;;9.50;99.90;;;;;;5026213;28;20041;-78
2022/11/04 08:30:58;;;;;;;4.80;1.60;;;9.70;99.90;;;;;;5029340;28;20080;-78
2022/11/04 08:33:25;;;;;;;7.85;1.42;;;9.60;99.90;;;;;;5031389;28;20053;-80
2022/11/04 08:35:51;;;;;;;4.20;1.15;;;9.70;99.90;;;;;;5025860;28;20053;-80
2022/11/04 08:38:17;;;;;;;10.70;1.50;;;9.70;99.90;;;;;;4996831;28;20144;-79
2022/11/04 08:40:43;;;;;;;6.30;1.38;;;9.90;99.90;;;;;;5010191;28;20098;-78
2022/11/04 08:43:10;;;;;;;5.13;1.20;;;9.70;99.90;;;;;;5005108;28;21043;-77
2022/11/04 08:45:41;;;;;;;5.53;1.20;;;9.80;99.90;;;;;;5039298;28;20039;-80
2022/11/04 08:48:07;;;;;;;5.25;1.10;;;9.80;99.90;;;;;;5019843;28;20055;-79
2022/11/04 08:50:32;;;;;;;8.00;1.30;;;10.00;99.90;;;;;;5028910;28;20049;-77
2022/11/04 08:52:58;;;;;;;8.80;1.08;;;10.00;99.90;;;;;;5030915;28;20045;-75
2022/11/04 08:55:23;;;;;;;4.40;1.00;;;10.10;99.90;;;;;;5050226;28;21720;-79
2022/11/04 08:57:49;;;;;;;5.38;0.90;;;10.20;99.90;;;;;;5034719;28;21858;-79
2022/11/04 09:00:16;;;;;;;9.95;1.50;;;10.20;99.90;;;;;;5039038;28;20060;-77
2022/11/04 09:02:42;;;;;;;5.35;0.98;;;10.20;99.90;;;;;;5023136;28;20107;-77
2022/11/04 09:05:08;;;;;;;6.55;0.98;;;10.30;99.90;;;;;;5049751;28;20476;-79
2022/11/04 09:07:36;;;;;;;3.90;0.95;;;10.30;99.90;;;;;;5030427;28;20113;-77
2022/11/04 09:10:03;;;;;;;5.13;1.27;;;10.10;99.90;;;;;;5033883;28;20061;-79
2022/11/04 09:12:28;;;;;;;4.50;0.88;;;10.40;99.90;;;;;;5051285;28;20057;-79
2022/11/04 09:14:54;;;;;;;5.38;1.27;;;10.30;99.90;;;;;;5052170;28;20131;-77
2022/11/04 09:17:20;;;;;;;5.05;0.90;;;10.20;99.90;;;;;;5031906;28;20049;-78
2022/11/04 09:19:45;;;;;;;7.72;0.98;;;10.30;99.90;;;;;;5033712;28;20056;-78
2022/11/04 09:22:11;;;;;;;8.38;1.67;;;10.50;99.90;;;;;;5039603;28;20119;-80
2022/11/04 09:24:36;;;;;;;8.90;1.48;;;10.40;99.90;;;;;;5050066;28;20408;-78
2022/11/04 09:27:04;;;;;;;5.97;1.08;;;10.50;99.90;;;;;;5031735;28;20488;-79
2022/11/04 09:29:32;;;;;;;5.97;1.50;;;10.50;99.90;;;;;;5044019;28;20135;-79
2022/11/04 09:31:58;;;;;;;9.48;1.13;;;10.70;99.90;;;;;;5033503;28;20492;-81
2022/11/04 09:34:24;;;;;;;10.00;1.85;;;10.80;99.90;;;;;;5031656;28;20512;-80
2022/11/04 09:36:49;;;;;;;9.07;1.45;;;10.60;99.90;;;;;;5030874;28;20181;-79
2022/11/04 09:39:16;;;;;;;4.40;1.08;;;10.70;99.90;;;;;;5046824;28;20099;-78
2022/11/04 09:41:48;;;;;;;6.65;1.10;;;10.90;99.90;;;;;;5041234;28;20496;-79
2022/11/04 09:44:47;;;;;;;6.65;1.20;;;10.80;99.90;;;;;;5028828;28;20137;-77
2022/11/04 09:47:13;;;;;;;9.35;1.17;;;10.90;99.90;;;;;;5032363;28;20053;-79
2022/11/04 09:49:43;;;;;;;5.32;1.20;;;11.10;99.90;;;;;;5036610;28;20064;-79
2022/11/04 09:52:22;;;;;;;5.63;1.25;;;11.20;99.90;;;;;;5020436;28;20404;-80
2022/11/04 09:55:06;;;;;;;6.95;1.23;;;11.10;99.90;;;;;;5036955;28;20421;-78
2022/11/04 09:57:32;;;;;;;9.93;1.23;;;11.30;99.90;;;;;;5039172;28;20052;-78
2022/11/04 09:59:59;;;;;;;6.80;1.23;;;11.40;99.90;;;;;;4999438;28;20128;-79
2022/11/04 10:02:33;;;;;;;8.13;1.27;;;11.60;99.90;;;;;;5011936;28;20041;-80
2022/11/04 10:05:05;;;;;;;7.05;1.23;;;11.70;99.90;;;;;;5026910;28;20041;-78
2022/11/04 10:07:58;;;;;;;6.55;1.02;;;11.60;99.90;;;;;;5008804;28;20484;-80
2022/11/04 10:10:24;;;;;;;5.75;1.15;;;11.70;99.90;;;;;;5014273;28;20365;-76
2022/11/04 10:13:08;;;;;;;6.40;1.20;;;11.80;99.90;;;;;;5015009;28;20056;-77
2022/11/04 10:15:51;;;;;;;4.53;1.02;;;12.00;99.90;;;;;;5010977;28;20072;-81
2022/11/04 10:18:23;;;;;;;8.98;1.30;;;12.10;99.90;;;;;;5009278;28;20037;-77
2022/11/04 10:20:58;;;;;;;4.50;1.30;;;12.00;99.90;;;;;;5023832;28;20121;-79
2022/11/04 10:23:53;;;;;;;10.15;1.40;;;12.10;99.90;;;;;;5021800;28;20434;-79
2022/11/04 10:26:32;;;;;;;8.60;1.13;;;12.00;99.90;;;;;;4962542;28;20049;-83
2022/11/04 10:29:04;;;;;;;6.50;1.17;;;12.30;99.90;;;;;;4988316;28;20043;-80
2022/11/04 10:31:30;;;;;;;9.18;1.30;;;12.40;99.90;;;;;;4964864;28;20057;-77
2022/11/04 10:34:11;;;;;;;14.82;1.38;;;12.30;99.90;;;;;;4968536;28;20413;-79
2022/11/04 10:36:38;;;;;;;4.32;1.08;;;12.30;99.90;;;;;;4987792;28;20042;-86
2022/11/04 10:39:13;;;;;;;5.53;1.50;;;12.30;99.90;;;;;;4968044;28;20054;-81
2022/11/04 10:41:39;;;;;;;7.68;1.17;;;12.30;99.90;;;;;;4969585;28;20054;-84
2022/11/04 10:44:10;;;;;;;8.52;1.30;;;12.30;99.90;;;;;;4949687;28;20069;-80
2022/11/04 10:46:46;;;;;;;10.35;1.40;;;12.20;99.90;;;;;;4952582;28;22271;-80
2022/11/04 10:49:25;;;;;;;9.52;1.30;;;12.30;99.90;;;;;;4968836;28;20498;-81
2022/11/04 10:51:52;;;;;;;9.45;1.42;;;12.60;99.90;;;;;;4944567;28;20694;-82
2022/11/04 10:54:19;;;;;;;7.80;1.10;;;12.70;99.90;;;;;;4960498;28;20054;-81
2022/11/04 10:56:52;;;;;;;10.63;1.40;;;12.80;99.90;;;;;;4976711;28;20556;-84
2022/11/04 10:59:30;;;;;;;9.50;1.77;;;12.90;99.90;;;;;;4970710;28;20116;-80
2022/11/04 11:02:01;;;;;;;9.63;1.42;;;12.70;99.90;;;;;;4969872;28;20058;-80
2022/11/04 11:04:30;;;;;;;9.98;1.48;;;12.70;99.90;;;;;;5023382;28;20425;-83
2022/11/04 11:06:58;;;;;;;9.18;1.10;;;12.50;99.90;;;;;;5015379;28;20037;-82
2022/11/04 11:09:33;;;;;;;11.30;1.40;;;12.70;99.90;;;;;;5012398;28;20054;-81
2022/11/04 11:12:01;;;;;;;13.15;1.45;;;12.70;99.90;;;;;;5012964;28;20045;-80
2022/11/04 11:14:27;;;;;;;6.63;1.30;;;12.80;99.90;;;;;;5025515;28;20044;-81
2022/11/04 11:16:53;;;;;;;9.73;1.35;;;12.90;99.90;;;;;;5035017;28;20135;-81
2022/11/04 11:19:24;;;;;;;8.02;1.38;;;12.90;99.90;;;;;;5031903;28;20103;-83
2022/11/04 11:21:55;;;;;;;6.65;1.33;;;12.90;99.90;;;;;;5009909;28;20211;-79
2022/11/04 11:24:25;;;;;;;8.50;1.52;;;12.90;99.90;;;;;;5021319;28;20095;-79
2022/11/04 11:26:54;;;;;;;7.65;1.20;;;13.20;99.90;;;;;;5022994;28;20184;-78
2022/11/04 11:29:23;;;;;;;8.80;1.42;;;13.30;99.90;;;;;;5022158;28;20033;-82
2022/11/04 11:31:50;;;;;;;5.75;1.02;;;13.30;99.90;;;;;;5021020;28;20133;-79
2022/11/04 11:34:36;;;;;;;7.68;1.17;;;13.30;99.90;;;;;;4999062;28;20083;-81
2022/11/04 11:37:06;;;;;;;;;;;13.20;99.90;;;;;;5012084;28;20130;-80
2022/11/04 11:39:34;;;;;;;7.97;1.20;;;12.90;99.90;;;;;;5011361;28;19987;-84
2022/11/04 11:42:01;;;;;;;6.68;1.42;;;13.00;99.90;;;;;;5036349;28;20040;-80
2022/11/04 11:44:52;;;;;;;13.15;1.55;;;12.80;99.90;;;;;;5023232;28;20060;-84
2022/11/04 11:47:35;;;;;;;5.45;1.00;;;12.50;99.90;;;;;;4986970;28;20540;-80
2022/11/04 11:50:34;;;;;;;8.57;1.23;;;12.30;99.90;;;;;;4998726;28;20100;-79
2022/11/04 11:53:15;;;;;;;5.05;0.95;;;12.20;99.90;;;;;;4962830;28;20053;-82
2022/11/04 12:00:07;;;;;;;4.93;1.05;;;12.00;99.90;;;;;;5003958;28;20456;-79
2022/11/04 12:02:44;;;;;;;3.90;1.10;;;11.80;99.90;;;;;;4972653;28;20050;-80
2022/11/04 12:05:12;;;;;;;4.43;0.98;;;11.90;99.90;;;;;;4968633;28;20046;-81
2022/11/04 12:08:12;;;;;;;4.28;1.25;;;11.90;99.90;;;;;;4998737;28;20046;-81
2022/11/04 12:10:46;;;;;;;3.50;1.00;;;11.90;99.90;;;;;;4982505;28;20116;-81
2022/11/04 12:13:29;;;;;;;6.20;1.40;;;11.70;99.90;;;;;;4970771;28;20128;-80
2022/11/04 12:16:22;;;;;;;5.78;1.10;;;11.70;99.90;;;;;;4981054;28;20049;-77
2022/11/04 12:19:08;;;;;;;2.85;1.10;;;11.70;99.90;;;;;;4940495;29;20171;-79
2022/11/04 12:21:39;;;;;;;3.60;0.93;;;11.60;99.90;;;;;;4928677;29;20147;-79
2022/11/04 12:24:26;;;;;;;5.50;1.10;;;11.60;99.90;;;;;;4942592;28;20042;-79
2022/11/04 12:27:12;;;;;;;5.38;1.20;;;11.60;99.90;;;;;;4981700;28;20070;-79
2022/11/04 12:30:02;;;;;;;4.07;1.38;;;11.60;99.90;;;;;;4968045;28;20541;-82
2022/11/04 12:32:42;;;;;;;5.15;1.23;;;11.60;99.90;;;;;;4964225;28;20057;-77
2022/11/04 12:35:45;;;;;;;7.15;1.20;;;11.60;99.90;;;;;;4962780;28;20050;-79
2022/11/04 12:38:33;;;;;;;7.07;1.20;;;11.70;99.90;;;;;;4971671;28;20377;-80
2022/11/04 12:41:36;;;;;;;4.70;1.10;;;11.70;99.90;;;;;;4967774;28;20038;-78
2022/11/04 12:44:04;;;;;;;6.20;1.30;;;11.80;99.90;;;;;;4976547;28;20224;-80
2022/11/04 12:46:33;;;;;;;7.25;1.20;;;12.00;99.90;;;;;;4977338;28;20038;-81
2022/11/04 12:49:33;;;;;;;5.75;1.23;;;12.10;99.90;;;;;;4958667;28;20093;-78
2022/11/04 12:52:04;;;;;;;8.02;1.00;;;12.40;99.90;;;;;;4951277;29;20039;-81
2022/11/04 12:54:39;;;;;;;6.03;0.98;;;12.50;99.90;;;;;;4926152;29;20070;-81
2022/11/04 12:57:24;;;;;;;4.20;0.77;;;12.50;99.90;;;;;;4972135;28;20053;-77
2022/11/04 13:00:12;;;;;;;4.65;0.95;;;12.50;99.90;;;;;;4967932;28;20050;-81
2022/11/04 13:03:01;;;;;;;7.70;1.20;;;12.70;99.90;;;;;;4950458;28;20047;-81
2022/11/04 13:05:52;;;;;;;9.25;1.15;;;12.70;99.90;;;;;;4967452;28;20061;-81
2022/11/04 13:08:49;;;;;;;6.80;1.25;;;12.80;99.90;;;;;;4923208;29;20047;-80
2022/11/04 13:11:25;;;;;;;4.68;1.00;;;12.90;99.90;;;;;;4925199;29;20058;-81
2022/11/04 13:13:51;;;;;;;6.53;1.08;;;12.90;99.90;;;;;;4926806;29;20488;-83
2022/11/04 13:16:17;;;;;;;9.15;1.20;;;13.00;99.90;;;;;;4898296;29;20195;-79
2022/11/04 13:18:46;;;;;;;9.52;1.40;;;13.20;99.90;;;;;;4907751;29;21256;-80
2022/11/04 13:21:22;;;;;;;11.95;1.88;;;12.90;99.90;;;;;;4915358;29;20067;-82
2022/11/04 13:24:03;;;;;;;8.57;1.40;;;12.90;99.90;;;;;;4930357;29;20078;-81
2022/11/04 13:26:29;;;;;;;11.07;1.40;;;12.80;99.90;;;;;;4910382;29;20067;-79
2022/11/04 13:29:14;;;;;;;9.07;1.38;;;12.90;99.90;;;;;;4930960;28;20145;-82
2022/11/04 13:32:00;;;;;;;18.52;1.70;;;12.90;99.90;;;;;;4927674;28;20550;-83
2022/11/04 13:34:45;;;;;;;10.93;1.73;;;12.90;99.90;;;;;;4929445;28;20542;-80
2022/11/04 13:37:19;;;;;;;22.33;1.80;;;12.90;99.90;;;;;;4928935;28;20074;-80
2022/11/04 13:39:54;;;;;;;8.38;1.40;;;12.90;99.90;;;;;;4909244;28;20299;-85
2022/11/04 13:42:25;;;;;;;6.68;1.42;;;13.00;99.90;;;;;;4913758;28;20211;-79
2022/11/04 13:44:55;;;;;;;11.15;1.58;;;12.90;99.90;;;;;;4942195;28;20042;-81
2022/11/04 13:47:49;;;;;;;7.68;1.50;;;13.10;99.90;;;;;;5017020;28;22381;-81
2022/11/04 13:50:27;;;;;;;9.60;1.60;;;13.00;99.90;;;;;;4998371;28;20052;-80
2022/11/04 13:52:53;;;;;;;10.07;1.90;;;13.00;99.90;;;;;;5006562;28;20038;-81
2022/11/04 13:55:21;;;;;;;9.07;1.40;;;13.30;99.90;;;;;;4974309;28;20494;-82